KDMA/DMA METAR and TAF weather

Enter ICAO airport designator
Station Type Date Time Source
KDMA METAR 2021/05/14 04:58 UTC NOAA

KDMA 140458Z AUTO 23007KT 10SM CLR 27/M14 A2997 RMK AO2 SLPNO T02651140 CHINO RWY12 $


Station Type Date Time Source
KDMA Decoded METAR 2021/05/14 04:58 UTC NOAA

Davis-Monthan Air Force Base, AZ, United States (KDMA) 32-10N 110-53W
May 14, 2021 - 12:58 AM EDT / 2021.05.14 0458 UTC
Wind: from the SW (230 degrees) at 8 MPH (7 KT):0
Visibility: 10 mile(s):0
Sky conditions: clear
Temperature: 79.7 F (26.5 C)
Dew Point: 6.8 F (-14.0 C)
Relative Humidity: 5%
Pressure (altimeter): 29.97 in. Hg (1014 hPa)
ob: KDMA 140458Z AUTO 23007KT 10SM CLR 27/M14 A2997 RMK AO2 SLPNO T02651140 CHINO RWY12
cycle: 5

Station Type Date Time Source
KDMA TAF 2021/05/13 22:18 UTC NOAA

TAF KDMA 132206Z 1322/1504 28009KT 9999 SCT200 QNH2990INS
BECMG 1403/1404 VRB06KT 9999 SKC QNH2995INS
BECMG 1418/1419 25012KT 9999 SKC QNH2982INS TX37/1322Z TN17/1411Z

Example: see airport list